createdAt,value
2018-08-07T00:00:19.999Z,99.90
2018-08-07T00:02:50.393Z,99.90
2018-08-07T00:05:19.720Z,99.90
2018-08-07T00:07:50.642Z,99.90
2018-08-07T00:10:21.549Z,99.90
2018-08-07T00:12:51.094Z,99.90
2018-08-07T00:15:21.062Z,99.90
2018-08-07T00:17:50.308Z,99.90
2018-08-07T00:20:19.531Z,99.90
2018-08-07T00:22:48.633Z,99.90
2018-08-07T00:25:17.856Z,99.90
2018-08-07T00:27:47.075Z,99.90
2018-08-07T00:30:17.506Z,99.90
2018-08-07T00:32:46.693Z,99.90
2018-08-07T00:35:17.755Z,99.90
2018-08-07T00:37:47.577Z,99.90
2018-08-07T00:40:18.176Z,99.90
2018-08-07T00:42:48.278Z,99.90
2018-08-07T00:45:18.841Z,99.60
2018-08-07T00:47:48.313Z,99.90
2018-08-07T00:50:19.303Z,99.50
2018-08-07T00:52:49.350Z,99.40
2018-08-07T00:55:19.426Z,99.20
2018-08-07T00:57:49.191Z,98.40
2018-08-07T01:00:18.593Z,98.20
2018-08-07T01:02:47.720Z,98.80
2018-08-07T01:05:17.966Z,97.90
2018-08-07T01:07:47.221Z,97.70
2018-08-07T01:10:17.658Z,97.90
2018-08-07T01:12:47.213Z,97.60
2018-08-07T01:15:18.838Z,96.90
2018-08-07T01:17:48.291Z,96.90
2018-08-07T01:20:21.912Z,97.60
2018-08-07T01:22:51.474Z,97.60
2018-08-07T01:25:26.004Z,97.80
2018-08-07T01:30:28.099Z,97.60
2018-08-07T01:32:57.660Z,97.70
2018-08-07T01:35:31.439Z,97.00
2018-08-07T01:38:00.654Z,97.10
2018-08-07T01:40:30.111Z,97.40
2018-08-07T01:42:59.241Z,97.50
2018-08-07T01:45:28.441Z,97.00
2018-08-07T01:47:57.592Z,97.10
2018-08-07T01:50:26.784Z,97.50
2018-08-07T01:52:55.885Z,97.70
2018-08-07T01:55:27.290Z,97.80
2018-08-07T01:57:56.530Z,97.60
2018-08-07T02:00:25.651Z,97.60
2018-08-07T02:02:54.933Z,97.60
2018-08-07T02:05:24.050Z,97.60
2018-08-07T02:07:53.312Z,97.40
2018-08-07T02:10:22.457Z,97.50
2018-08-07T02:12:51.564Z,97.50
2018-08-07T02:15:20.694Z,97.50
2018-08-07T02:17:49.874Z,97.20
2018-08-07T02:20:19.175Z,97.50
2018-08-07T02:22:48.441Z,97.20
2018-08-07T02:25:18.741Z,97.70
2018-08-07T02:27:48.560Z,97.60
2018-08-07T02:30:18.458Z,97.60
2018-08-07T02:32:47.596Z,97.70
2018-08-07T02:35:17.581Z,98.00
2018-08-07T02:37:47.880Z,98.30
2018-08-07T02:40:17.522Z,98.00
2018-08-07T02:42:46.750Z,98.10
2018-08-07T02:45:18.343Z,98.10
2018-08-07T02:47:48.146Z,98.50
2018-08-07T02:50:19.317Z,98.60
2018-08-07T02:52:48.806Z,98.20
2018-08-07T02:55:17.891Z,98.60
2018-08-07T02:57:47.257Z,98.70
2018-08-07T03:00:22.714Z,98.70
2018-08-07T03:02:51.880Z,99.00
2018-08-07T03:05:21.779Z,98.90
2018-08-07T03:07:51.419Z,98.70
2018-08-07T03:10:20.896Z,99.00
2018-08-07T03:12:50.165Z,99.20
2018-08-07T03:15:20.405Z,98.90
2018-08-07T03:17:50.123Z,98.90
2018-08-07T03:20:19.734Z,99.20
2018-08-07T03:22:48.866Z,99.40
2018-08-07T03:25:18.148Z,99.40
2018-08-07T03:27:47.741Z,99.20
2018-08-07T03:30:18.339Z,99.50
2018-08-07T03:32:47.856Z,99.80
2018-08-07T03:35:17.360Z,99.90
2018-08-07T03:37:46.539Z,99.90
2018-08-07T03:40:17.227Z,99.90
2018-08-07T03:42:46.499Z,99.50
2018-08-07T03:45:17.029Z,99.90
2018-08-07T03:47:46.955Z,99.90
2018-08-07T03:50:16.172Z,99.60
2018-08-07T03:52:45.289Z,99.50
2018-08-07T03:55:16.507Z,99.90
2018-08-07T03:57:46.198Z,99.90
2018-08-07T04:00:25.303Z,99.90
2018-08-07T04:02:54.472Z,99.90
2018-08-07T04:05:23.772Z,99.90
2018-08-07T04:07:53.245Z,99.90
2018-08-07T04:10:22.648Z,99.90
2018-08-07T04:12:51.822Z,99.90
2018-08-07T04:15:20.899Z,99.90
2018-08-07T04:17:50.264Z,99.90
2018-08-07T04:20:19.912Z,99.90
2018-08-07T04:22:49.011Z,99.90
2018-08-07T04:25:18.474Z,99.90
2018-08-07T04:27:48.031Z,99.90
2018-08-07T04:30:18.493Z,99.90
2018-08-07T04:32:47.802Z,99.90
2018-08-07T04:35:17.567Z,99.90
2018-08-07T04:37:47.084Z,99.90
2018-08-07T04:40:16.199Z,99.90
2018-08-07T04:42:45.470Z,99.90
2018-08-07T04:45:16.011Z,99.90
2018-08-07T04:47:45.748Z,99.90
2018-08-07T04:50:14.848Z,99.90
2018-08-07T04:52:44.198Z,99.00
2018-08-07T04:55:13.601Z,97.80
2018-08-07T04:57:42.875Z,96.90
2018-08-07T05:02:42.818Z,94.70
2018-08-07T05:05:12.044Z,93.60
2018-08-07T05:07:41.547Z,92.70
2018-08-07T05:10:12.993Z,92.20
2018-08-07T05:12:42.884Z,91.70
2018-08-07T05:15:12.637Z,91.40
2018-08-07T05:17:43.177Z,91.40
2018-08-07T05:20:12.360Z,91.70
2018-08-07T05:22:41.633Z,92.30
2018-08-07T05:25:11.796Z,92.70
2018-08-07T05:27:41.020Z,93.40
2018-08-07T05:30:11.965Z,94.00
2018-08-07T05:32:41.371Z,94.20
2018-08-07T05:35:11.552Z,94.70
2018-08-07T05:37:41.004Z,95.30
2018-08-07T05:40:11.351Z,95.70
2018-08-07T05:42:41.287Z,95.70
2018-08-07T05:45:13.384Z,96.00
2018-08-07T05:47:42.579Z,96.00
2018-08-07T05:50:14.245Z,96.10
2018-08-07T05:52:43.488Z,96.50
2018-08-07T05:55:13.140Z,96.50
2018-08-07T05:57:42.310Z,96.70
2018-08-07T06:00:14.611Z,96.80
2018-08-07T06:02:44.694Z,96.70
2018-08-07T06:05:13.969Z,96.70
2018-08-07T06:07:43.358Z,96.70
2018-08-07T06:10:13.453Z,96.60
2018-08-07T06:12:42.885Z,96.60
2018-08-07T06:15:14.389Z,96.50
2018-08-07T06:17:44.434Z,96.50
2018-08-07T06:20:13.963Z,96.30
2018-08-07T06:22:43.208Z,96.30
2018-08-07T06:25:12.494Z,96.20
2018-08-07T06:27:41.610Z,95.90
2018-08-07T06:30:13.865Z,95.90
2018-08-07T06:32:43.303Z,95.90
2018-08-07T06:35:12.591Z,95.70
2018-08-07T06:37:41.765Z,95.70
2018-08-07T06:40:12.106Z,95.50
2018-08-07T06:42:41.248Z,95.60
2018-08-07T06:45:12.228Z,95.80
2018-08-07T06:47:41.340Z,95.70
2018-08-07T06:50:13.952Z,95.50
2018-08-07T06:52:43.778Z,95.10
2018-08-07T06:55:13.098Z,95.30
2018-08-07T06:57:42.369Z,95.10
2018-08-07T07:00:20.634Z,95.20
2018-08-07T07:02:49.880Z,95.30
2018-08-07T07:05:19.412Z,95.20
2018-08-07T07:07:48.726Z,95.10
2018-08-07T07:10:17.907Z,94.70
2018-08-07T07:12:47.650Z,95.10
2018-08-07T07:15:17.524Z,95.00
2018-08-07T07:17:47.856Z,94.60
2018-08-07T07:20:18.271Z,94.40
2018-08-07T07:22:48.467Z,94.10
2018-08-07T07:25:17.751Z,94.40
2018-08-07T07:27:47.059Z,94.00
2018-08-07T07:30:19.792Z,93.80
2018-08-07T07:32:50.375Z,93.40
2018-08-07T07:35:20.057Z,93.20
2018-08-07T07:37:49.572Z,93.20
2018-08-07T07:40:18.846Z,93.20
2018-08-07T07:42:48.133Z,93.20
2018-08-07T07:45:18.694Z,93.10
2018-08-07T07:47:47.907Z,93.40
2018-08-07T07:50:19.031Z,92.30
2018-08-07T07:52:48.255Z,92.30
2018-08-07T07:55:18.159Z,92.10
2018-08-07T07:57:47.329Z,91.80
2018-08-07T08:00:25.399Z,92.00
2018-08-07T08:02:54.929Z,91.80
2018-08-07T08:05:25.653Z,91.90
2018-08-07T08:07:55.321Z,91.70
2018-08-07T08:10:24.554Z,91.40
2018-08-07T08:12:53.844Z,91.20
2018-08-07T08:15:23.096Z,90.80
2018-08-07T08:17:52.347Z,91.00
2018-08-07T08:20:24.196Z,90.80
2018-08-07T08:22:54.411Z,90.30
2018-08-07T08:25:23.607Z,89.90
2018-08-07T08:27:53.125Z,88.20
2018-08-07T08:32:51.171Z,86.60
2018-08-07T08:35:20.743Z,85.00
2018-08-07T08:37:50.419Z,84.20
2018-08-07T08:40:22.297Z,83.20
2018-08-07T08:42:51.572Z,84.20
2018-08-07T08:45:22.476Z,83.30
2018-08-07T08:47:53.500Z,81.90
2018-08-07T08:50:23.069Z,78.90
2018-08-07T08:52:52.274Z,73.60
2018-08-07T08:55:21.386Z,73.10
2018-08-07T08:57:50.657Z,74.80
2018-08-07T09:00:22.493Z,72.40
2018-08-07T09:02:52.038Z,72.30
2018-08-07T09:05:21.187Z,71.90
2018-08-07T09:07:50.630Z,71.20
2018-08-07T09:10:22.927Z,71.30
2018-08-07T09:15:21.383Z,70.40
2018-08-07T09:17:50.549Z,69.60
2018-08-07T09:20:23.813Z,68.50
2018-08-07T09:22:53.299Z,67.40
2018-08-07T09:25:23.913Z,67.70
2018-08-07T09:27:53.294Z,66.80
2018-08-07T09:30:24.851Z,66.50
2018-08-07T09:32:54.925Z,65.60
2018-08-07T09:35:24.760Z,65.50
2018-08-07T09:37:54.898Z,66.20
2018-08-07T09:40:24.416Z,65.20
2018-08-07T09:42:54.850Z,64.70
2018-08-07T09:45:33.390Z,64.70
2018-08-07T09:48:03.847Z,64.30
2018-08-07T09:50:33.232Z,64.60
2018-08-07T09:53:02.482Z,64.60
2018-08-07T09:55:31.618Z,64.90
2018-08-07T09:58:00.769Z,64.80
2018-08-07T10:00:35.303Z,64.30
2018-08-07T10:03:06.030Z,64.40
2018-08-07T10:05:35.567Z,64.40
2018-08-07T10:08:04.836Z,65.00
2018-08-07T10:10:34.035Z,65.20
2018-08-07T10:13:03.215Z,65.90
2018-08-07T10:15:32.760Z,65.20
2018-08-07T10:18:02.295Z,65.30
2018-08-07T10:20:31.822Z,65.40
2018-08-07T10:23:01.025Z,66.60
2018-08-07T10:25:30.400Z,65.70
2018-08-07T10:27:59.676Z,65.30
2018-08-07T10:30:29.052Z,66.00
2018-08-07T10:32:58.285Z,65.40
2018-08-07T10:35:27.718Z,65.30
2018-08-07T10:37:57.193Z,66.10
2018-08-07T10:40:27.838Z,64.20
2018-08-07T10:42:57.028Z,64.60
2018-08-07T10:45:26.823Z,64.10
2018-08-07T10:47:55.973Z,63.40
2018-08-07T10:52:56.760Z,64.40
2018-08-07T10:55:26.360Z,63.80
2018-08-07T10:57:57.503Z,64.70
2018-08-07T11:00:32.218Z,63.50
2018-08-07T11:03:02.193Z,62.20
2018-08-07T11:05:32.259Z,62.90
2018-08-07T11:08:01.577Z,63.20
2018-08-07T11:10:31.386Z,62.60
2018-08-07T11:13:00.637Z,62.20
2018-08-07T11:18:01.147Z,62.30
2018-08-07T11:20:30.638Z,62.80
2018-08-07T11:23:01.419Z,62.00
2018-08-07T11:25:31.358Z,62.40
2018-08-07T11:28:01.257Z,63.30
2018-08-07T11:30:31.085Z,62.30
2018-08-07T11:33:01.434Z,63.00
2018-08-07T11:35:30.725Z,62.50
2018-08-07T11:38:02.244Z,62.80
2018-08-07T11:40:31.817Z,62.30
2018-08-07T11:43:01.152Z,62.40
2018-08-07T11:45:31.389Z,63.30
2018-08-07T11:48:00.804Z,63.20
2018-08-07T11:50:31.638Z,63.90
2018-08-07T11:53:00.927Z,62.70
2018-08-07T11:55:30.148Z,61.60
2018-08-07T11:57:59.364Z,61.10
2018-08-07T12:00:34.107Z,61.30
2018-08-07T12:03:03.960Z,60.90
2018-08-07T12:05:33.348Z,61.40
2018-08-07T12:08:02.817Z,59.80
2018-08-07T12:10:32.320Z,58.90
2018-08-07T12:13:01.843Z,59.30
2018-08-07T12:15:31.164Z,59.20
2018-08-07T12:18:00.349Z,59.30
2018-08-07T12:20:29.674Z,58.60
2018-08-07T12:22:58.932Z,59.00
2018-08-07T12:25:28.146Z,59.30
2018-08-07T12:27:57.318Z,59.60
2018-08-07T12:30:27.826Z,60.10
2018-08-07T12:32:57.488Z,58.60
2018-08-07T12:35:26.862Z,58.10
2018-08-07T12:37:56.266Z,57.30
2018-08-07T12:40:29.970Z,57.30
2018-08-07T12:43:00.490Z,56.80
2018-08-07T12:45:29.819Z,56.80
2018-08-07T12:47:59.289Z,57.20
2018-08-07T12:50:28.566Z,57.80
2018-08-07T12:52:57.978Z,56.60
2018-08-07T12:55:27.298Z,56.60
2018-08-07T12:57:56.674Z,57.50
2018-08-07T13:00:28.835Z,57.60
2018-08-07T13:02:58.072Z,57.70
2018-08-07T13:05:27.316Z,58.40
2018-08-07T13:07:56.619Z,58.30
2018-08-07T13:10:26.571Z,58.50
2018-08-07T13:12:56.784Z,58.30
2018-08-07T13:15:26.068Z,57.90
2018-08-07T13:17:55.384Z,58.60
2018-08-07T13:20:24.752Z,58.50
2018-08-07T13:22:53.974Z,58.00
2018-08-07T13:25:23.658Z,58.50
2018-08-07T13:27:52.979Z,58.00
2018-08-07T13:30:25.499Z,57.00
2018-08-07T13:32:54.880Z,56.30
2018-08-07T13:35:24.375Z,56.90
2018-08-07T13:37:54.116Z,57.10
2018-08-07T13:40:24.437Z,57.10
2018-08-07T13:42:53.901Z,57.20
2018-08-07T13:45:24.619Z,56.80
2018-08-07T13:47:54.072Z,56.30
2018-08-07T13:50:24.580Z,55.50
2018-08-07T13:52:54.449Z,55.80
2018-08-07T13:55:24.806Z,56.20
2018-08-07T13:57:54.259Z,55.50
2018-08-07T14:00:25.637Z,55.80
2018-08-07T14:02:55.517Z,55.30
2018-08-07T14:05:25.742Z,55.70
2018-08-07T14:07:56.021Z,55.60
2018-08-07T14:10:26.791Z,56.10
2018-08-07T14:12:56.032Z,57.00
2018-08-07T14:15:27.024Z,54.60
2018-08-07T14:17:56.403Z,55.10
2018-08-07T14:20:25.844Z,54.10
2018-08-07T14:22:55.172Z,54.40
2018-08-07T14:25:26.039Z,55.10
2018-08-07T14:27:55.450Z,55.40
2018-08-07T14:30:29.018Z,55.30
2018-08-07T14:32:59.914Z,55.70
2018-08-07T14:35:29.274Z,55.90
2018-08-07T14:37:58.607Z,54.70
2018-08-07T14:40:28.728Z,54.10
2018-08-07T14:42:57.959Z,53.10
2018-08-07T14:45:28.653Z,53.10
2018-08-07T14:47:58.881Z,53.50
2018-08-07T14:50:29.646Z,53.40
2018-08-07T14:52:58.844Z,52.50
2018-08-07T14:55:28.279Z,52.10
2018-08-07T14:57:57.669Z,52.40
2018-08-07T15:00:29.267Z,53.10
2018-08-07T15:02:58.939Z,52.90
2018-08-07T15:05:28.460Z,53.00
2018-08-07T15:07:57.641Z,53.30
2018-08-07T15:10:27.805Z,53.10
2018-08-07T15:12:57.259Z,53.10
2018-08-07T15:15:28.690Z,53.80
2018-08-07T15:17:58.020Z,53.70
2018-08-07T15:20:28.902Z,53.90
2018-08-07T15:22:58.775Z,53.50
2018-08-07T15:25:28.142Z,52.80
2018-08-07T15:27:57.670Z,53.00
2018-08-07T15:30:28.132Z,53.40
2018-08-07T15:32:57.855Z,54.20
2018-08-07T15:35:28.492Z,53.90
2018-08-07T15:37:58.215Z,53.70
2018-08-07T15:40:27.609Z,53.80
2018-08-07T15:45:26.250Z,52.60
2018-08-07T15:47:55.529Z,53.60
2018-08-07T15:50:24.969Z,53.50
2018-08-07T15:52:55.361Z,53.30
2018-08-07T15:55:26.121Z,53.60
2018-08-07T15:57:55.523Z,54.10
2018-08-07T16:00:28.042Z,54.30
2018-08-07T16:02:57.490Z,54.30
2018-08-07T16:05:26.744Z,55.30
2018-08-07T16:07:56.048Z,54.40
2018-08-07T16:12:55.020Z,54.20
2018-08-07T16:15:24.727Z,56.40
2018-08-07T16:17:54.444Z,54.00
2018-08-07T16:20:50.779Z,54.60
2018-08-07T16:23:19.581Z,54.70
2018-08-07T16:25:48.457Z,54.00
2018-08-07T16:28:17.115Z,54.30
2018-08-07T16:30:45.946Z,54.30
2018-08-07T16:33:14.670Z,53.80
2018-08-07T16:35:43.690Z,53.50
2018-08-07T16:38:12.362Z,53.80
2018-08-07T16:40:41.140Z,54.00
2018-08-07T16:43:09.855Z,53.80
2018-08-07T16:45:38.726Z,52.60
2018-08-07T16:48:07.492Z,54.00
2018-08-07T16:50:36.426Z,52.80
2018-08-07T16:53:05.341Z,51.20
2018-08-07T16:55:34.178Z,50.70
2018-08-07T16:58:03.095Z,50.60
2018-08-07T17:00:31.953Z,50.60
2018-08-07T17:03:00.601Z,50.60
2018-08-07T17:05:29.275Z,51.00
2018-08-07T17:07:58.274Z,50.50
2018-08-07T17:10:28.276Z,51.00
2018-08-07T17:12:57.466Z,50.20
2018-08-07T17:15:26.136Z,50.30
2018-08-07T17:17:54.945Z,50.70
2018-08-07T17:20:24.250Z,50.70
2018-08-07T17:22:53.606Z,53.10
2018-08-07T17:25:23.281Z,51.80
2018-08-07T17:27:52.326Z,51.50
2018-08-07T17:30:23.073Z,52.40
2018-08-07T17:32:51.992Z,52.50
2018-08-07T17:35:24.793Z,49.70
2018-08-07T17:37:55.075Z,48.90
2018-08-07T17:40:25.334Z,48.40
2018-08-07T17:42:54.060Z,49.00
2018-08-07T17:45:23.022Z,51.80
2018-08-07T17:47:51.883Z,51.20
2018-08-07T17:50:22.095Z,50.30
2018-08-07T17:52:51.984Z,51.60
2018-08-07T17:55:20.665Z,53.80
2018-08-07T17:57:50.445Z,53.20
2018-08-07T18:00:20.915Z,54.40
2018-08-07T18:02:49.765Z,58.50
2018-08-07T18:05:18.812Z,54.70
2018-08-07T18:07:49.445Z,54.00
2018-08-07T18:10:19.547Z,55.00
2018-08-07T18:12:48.754Z,56.20
2018-08-07T18:15:18.938Z,56.80
2018-08-07T18:17:48.387Z,57.60
2018-08-07T18:20:27.768Z,55.70
2018-08-07T18:22:56.443Z,52.20
2018-08-07T18:25:25.342Z,52.40
2018-08-07T18:27:54.450Z,55.80
2018-08-07T18:30:24.534Z,52.80
2018-08-07T18:32:53.637Z,56.30
2018-08-07T18:35:24.810Z,56.10
2018-08-07T18:37:53.488Z,57.10
2018-08-07T18:40:22.314Z,58.90
2018-08-07T18:42:51.179Z,58.80
2018-08-07T18:45:20.346Z,58.50
2018-08-07T18:47:49.064Z,58.90
2018-08-07T18:50:20.651Z,60.00
2018-08-07T18:52:49.728Z,63.20
2018-08-07T18:55:18.752Z,63.00
2018-08-07T18:57:49.171Z,58.90
2018-08-07T19:00:19.675Z,60.30
2018-08-07T19:02:48.657Z,59.40
2018-08-07T19:05:19.052Z,60.00
2018-08-07T19:07:47.786Z,60.50
2018-08-07T19:10:16.901Z,63.30
2018-08-07T19:12:46.673Z,67.50
2018-08-07T19:15:16.798Z,70.50
2018-08-07T19:17:45.657Z,72.50
2018-08-07T19:20:16.379Z,73.60
2018-08-07T19:22:45.251Z,75.40
2018-08-07T19:25:14.417Z,75.90
2018-08-07T19:27:43.436Z,77.00
2018-08-07T19:30:14.028Z,76.80
2018-08-07T19:32:43.081Z,77.30
2018-08-07T19:35:12.863Z,77.60
2018-08-07T19:37:42.098Z,78.10
2018-08-07T19:40:13.756Z,78.00
2018-08-07T19:42:42.768Z,78.80
2018-08-07T19:45:12.302Z,78.80
2018-08-07T19:47:41.516Z,80.10
2018-08-07T19:50:12.050Z,80.10
2018-08-07T19:52:40.935Z,79.80
2018-08-07T19:55:14.033Z,80.00
2018-08-07T19:57:42.966Z,80.00
2018-08-07T20:00:15.911Z,80.00
2018-08-07T20:02:44.666Z,80.20
2018-08-07T20:05:13.604Z,83.20
2018-08-07T20:07:42.827Z,84.10
2018-08-07T20:10:12.800Z,83.30
2018-08-07T20:12:42.215Z,81.50
2018-08-07T20:15:18.452Z,81.20
2018-08-07T20:17:47.922Z,81.90
2018-08-07T20:20:16.796Z,82.40
2018-08-07T20:22:45.861Z,81.90
2018-08-07T20:25:14.700Z,83.10
2018-08-07T20:27:43.471Z,83.30
2018-08-07T20:30:14.329Z,83.50
2018-08-07T20:32:44.289Z,83.20
2018-08-07T20:35:13.524Z,82.80
2018-08-07T20:37:42.483Z,84.60
2018-08-07T20:40:15.287Z,84.70
2018-08-07T20:42:44.531Z,84.70
2018-08-07T20:45:14.548Z,85.30
2018-08-07T20:47:43.492Z,86.10
2018-08-07T20:50:14.575Z,86.80
2018-08-07T20:52:44.249Z,86.10
2018-08-07T20:55:13.776Z,85.80
2018-08-07T20:57:42.541Z,86.60
2018-08-07T21:00:13.982Z,86.50
2018-08-07T21:02:42.706Z,88.10
2018-08-07T21:05:11.767Z,88.60
2018-08-07T21:07:40.673Z,88.60
2018-08-07T21:10:11.154Z,89.30
2018-08-07T21:12:40.159Z,89.80
2018-08-07T21:15:10.121Z,89.60
2018-08-07T21:17:39.116Z,90.30
2018-08-07T21:20:09.910Z,90.70
2018-08-07T21:22:38.502Z,90.20
2018-08-07T21:25:10.280Z,90.30
2018-08-07T21:27:39.191Z,90.80
2018-08-07T21:30:11.685Z,91.20
2018-08-07T21:32:41.054Z,91.10
2018-08-07T21:35:11.110Z,91.40
2018-08-07T21:37:40.499Z,91.40
2018-08-07T21:40:17.842Z,92.40
2018-08-07T21:42:47.154Z,93.10
2018-08-07T21:45:16.066Z,92.90
2018-08-07T21:47:45.190Z,93.30
2018-08-07T21:50:15.672Z,93.60
2018-08-07T21:52:44.441Z,94.00
2018-08-07T21:55:14.771Z,93.90
2018-08-07T21:57:43.398Z,94.20
2018-08-07T22:00:15.214Z,94.40
2018-08-07T22:02:44.384Z,94.60
2018-08-07T22:05:13.235Z,94.50
2018-08-07T22:07:42.188Z,94.90
2018-08-07T22:10:21.125Z,95.20
2018-08-07T22:12:49.895Z,95.60
2018-08-07T22:15:19.416Z,96.10
2018-08-07T22:17:48.432Z,96.00
2018-08-07T22:20:17.013Z,96.30
2018-08-07T22:22:45.901Z,96.10
2018-08-07T22:25:14.516Z,97.20
2018-08-07T22:27:43.265Z,95.60
2018-08-07T22:30:18.890Z,96.00
2018-08-07T22:32:47.942Z,96.30
2018-08-07T22:35:16.713Z,96.40
2018-08-07T22:37:45.365Z,96.60
2018-08-07T22:40:15.135Z,97.60
2018-08-07T22:42:44.062Z,97.80
2018-08-07T22:45:14.539Z,98.60
2018-08-07T22:47:43.922Z,98.50
2018-08-07T22:50:14.003Z,99.00
2018-08-07T22:52:43.965Z,98.90
2018-08-07T22:55:15.896Z,98.90
2018-08-07T22:57:44.618Z,99.90
2018-08-07T23:00:17.178Z,99.70
2018-08-07T23:02:45.775Z,98.80
2018-08-07T23:05:15.551Z,99.90
2018-08-07T23:07:44.529Z,99.90
2018-08-07T23:10:23.759Z,99.90
2018-08-07T23:12:52.407Z,99.90
2018-08-07T23:15:21.796Z,99.90
2018-08-07T23:17:50.684Z,99.90
2018-08-07T23:20:21.988Z,99.90
2018-08-07T23:22:55.010Z,99.90
2018-08-07T23:25:23.749Z,99.90
2018-08-07T23:27:52.371Z,99.90
2018-08-07T23:30:21.487Z,99.90
2018-08-07T23:32:50.119Z,99.90
2018-08-07T23:35:18.867Z,99.90
2018-08-07T23:37:47.702Z,99.90
2018-08-07T23:40:16.415Z,99.90
2018-08-07T23:42:45.637Z,99.90
2018-08-07T23:45:15.306Z,99.90
2018-08-07T23:47:44.326Z,99.90
2018-08-07T23:50:13.926Z,99.90
2018-08-07T23:52:42.615Z,99.90
2018-08-07T23:55:11.443Z,99.90
2018-08-07T23:57:40.167Z,99.90
